Time;durP1;ratioP1;P1;durP2;ratioP2;P2;SDS_P1;SDS_P2;PMS_P1;PMS_P2;Temp;Humidity;BMP_temperature;BMP_pressure;BME280_temperature;BME280_humidity;BME280_pressure;Samples;Min_cycle;Max_cycle;Signal;HPM_P1;HPM_P2
2023/08/24 00:01:16;;;;;;;7.37;6.60;;;;;;;17.20;nan;97192.28;5017633;28;20231;-62
2023/08/24 00:03:45;;;;;;;7.37;6.77;;;;;;;17.24;nan;97187.28;5019301;28;20788;-63
2023/08/24 00:06:14;;;;;;;7.73;7.03;;;;;;;17.25;nan;97188.94;5018406;28;20235;-64
2023/08/24 00:08:42;;;;;;;7.40;6.90;;;;;;;17.21;nan;97183.19;5021366;28;20201;-63
2023/08/24 00:11:14;;;;;;;7.50;7.07;;;;;;;17.18;nan;97179.13;5017664;28;20216;-65
2023/08/24 00:13:46;;;;;;;7.33;6.80;;;;;;;17.12;nan;97184.56;5021764;28;20281;-64
2023/08/24 00:16:14;;;;;;;7.97;7.20;;;;;;;17.10;nan;97181.31;4890626;28;20571;-65
2023/08/24 00:18:42;;;;;;;8.07;7.50;;;;;;;17.08;nan;97178.88;5019512;28;20197;-63
2023/08/24 00:21:10;;;;;;;6.97;6.57;;;;;;;17.04;nan;97183.00;5017337;28;20292;-63
2023/08/24 00:23:38;;;;;;;8.03;7.53;;;;;;;17.02;nan;97175.22;5015354;28;20224;-63
2023/08/24 00:26:06;;;;;;;7.93;7.40;;;;;;;16.95;nan;97181.66;4999567;28;20228;-63
2023/08/24 00:28:35;;;;;;;10.53;7.73;;;;;;;17.00;nan;97179.97;5019690;28;20224;-60
2023/08/24 00:31:03;;;;;;;8.73;7.93;;;;;;;16.95;nan;97181.66;5017515;28;20211;-63
2023/08/24 00:33:31;;;;;;;8.27;7.73;;;;;;;16.92;nan;97181.06;5020700;28;21365;-63
2023/08/24 00:36:01;;;;;;;8.90;8.30;;;;;;;16.88;nan;97187.13;5015703;28;20284;-64
2023/08/24 00:38:29;;;;;;;8.70;8.10;;;;;;;16.88;nan;97179.88;5020790;28;20211;-62
2023/08/24 00:40:58;;;;;;;9.03;8.33;;;;;;;16.85;nan;97184.84;4975742;28;20230;-64
2023/08/24 00:43:26;;;;;;;8.13;7.63;;;;;;;16.93;nan;97181.91;5022382;28;20208;-63
2023/08/24 00:45:58;;;;;;;8.67;7.97;;;;;;;16.90;nan;97188.50;4890592;28;20924;-63
2023/08/24 00:48:28;;;;;;;8.27;7.77;;;;;;;16.79;nan;97184.72;5018031;28;20203;-59
2023/08/24 00:50:56;;;;;;;8.50;7.90;;;;;;;16.72;nan;97183.19;5015819;28;20213;-59
2023/08/24 00:53:26;;;;;;;8.63;8.03;;;;;;;16.66;nan;97179.53;5015676;28;20208;-61
2023/08/24 00:55:54;;;;;;;8.17;7.47;;;;;;;16.60;nan;97175.06;5015181;28;20220;-61
2023/08/24 00:58:21;;;;;;;9.23;8.53;;;;;;;16.54;nan;97178.66;5017919;28;20224;-63
2023/08/24 01:00:50;;;;;;;8.80;8.20;;;;;;;16.48;nan;97175.81;5018251;28;20672;-64
2023/08/24 01:03:19;;;;;;;8.57;7.77;;;;;;;16.43;nan;97180.19;5017397;28;20200;-63
2023/08/24 01:05:46;;;;;;;8.33;7.83;;;;;;;16.39;nan;97179.81;5014220;28;20915;-63
2023/08/24 01:08:14;;;;;;;9.00;8.33;;;;;;;16.32;nan;97182.56;5020416;28;20200;-64
2023/08/24 01:10:49;;;;;;;9.03;8.30;;;;;;;16.25;nan;97181.78;4973109;28;20670;-63
2023/08/24 01:13:22;;;;;;;9.87;9.07;;;;;;;16.26;nan;97180.75;5018288;28;20207;-65
2023/08/24 01:15:55;;;;;;;8.03;7.37;;;;;;;16.25;nan;97179.13;5012653;28;20208;-63
2023/08/24 01:18:26;;;;;;;9.27;8.53;;;;;;;16.21;nan;97180.59;5016967;28;20710;-62
2023/08/24 01:20:54;;;;;;;9.60;8.93;;;;;;;16.21;nan;97172.59;4887482;28;20702;-65
2023/08/24 01:23:34;;;;;;;8.93;8.27;;;;;;;16.15;nan;97181.50;5019132;28;20212;-61
2023/08/24 01:26:07;;;;;;;8.93;8.33;;;;;;;16.16;nan;97183.94;5015891;28;20232;-62
2023/08/24 01:28:35;;;;;;;8.60;7.90;;;;;;;16.14;nan;97183.34;5019677;28;20214;-63
2023/08/24 01:31:04;;;;;;;9.20;8.60;;;;;;;16.09;nan;97187.72;5013289;28;20200;-63
2023/08/24 01:33:32;;;;;;;9.03;8.33;;;;;;;16.09;nan;97185.84;5014424;28;20262;-64
2023/08/24 01:36:00;;;;;;;9.37;8.53;;;;;;;16.11;nan;97186.47;5014560;28;20377;-63
2023/08/24 01:38:28;;;;;;;8.20;7.70;;;;;;;16.13;nan;97188.91;5014191;28;20775;-63
2023/08/24 01:41:01;;;;;;;9.63;8.73;;;;;;;16.12;nan;97181.94;5015519;28;20197;-63
2023/08/24 01:43:33;;;;;;;8.80;8.00;;;;;;;16.09;nan;97179.69;5013033;28;20413;-63
2023/08/24 01:46:12;;;;;;;8.27;7.67;;;;;;;16.04;nan;97181.19;4971354;28;20231;-62
2023/08/24 01:48:41;;;;;;;9.87;9.17;;;;;;;15.88;nan;97150.47;5014666;28;20270;-62
2023/08/24 01:51:10;;;;;;;8.73;8.13;;;;;;;15.94;nan;97164.84;4889051;28;20208;-62
2023/08/24 01:53:39;;;;;;;9.57;8.57;;;;;;;15.92;nan;97164.22;5016898;28;20208;-62
2023/08/24 01:56:10;;;;;;;9.23;8.43;;;;;;;15.88;nan;97160.34;5013633;28;20232;-63
2023/08/24 01:58:40;;;;;;;8.37;7.80;;;;;;;15.86;nan;97159.72;5017457;28;20245;-64
2023/08/24 02:01:08;;;;;;;8.67;7.97;;;;;;;15.82;nan;97158.50;5018749;28;20209;-64
2023/08/24 02:03:36;;;;;;;8.57;7.87;;;;;;;15.76;nan;97147.66;5017685;28;20637;-64
2023/08/24 02:06:05;;;;;;;9.07;8.37;;;;;;;15.76;nan;97152.22;5018568;28;20223;-62
2023/08/24 02:08:32;;;;;;;8.93;8.17;;;;;;;15.73;nan;97155.31;5019284;28;20210;-62
2023/08/24 02:11:00;;;;;;;9.27;8.37;;;;;;;15.71;nan;97160.03;5010330;28;20612;-62
2023/08/24 02:13:28;;;;;;;9.77;8.77;;;;;;;15.71;nan;97158.19;5020311;28;20204;-62
2023/08/24 02:16:03;;;;;;;10.20;9.27;;;;;;;15.68;nan;97155.13;4963790;28;20836;-60
2023/08/24 02:18:31;;;;;;;8.53;7.77;;;;;;;15.68;nan;97155.13;5015667;28;20199;-62
2023/08/24 02:20:59;;;;;;;8.93;8.33;;;;;;;15.66;nan;97162.53;5014208;28;20216;-63
2023/08/24 02:23:27;;;;;;;9.07;8.37;;;;;;;15.65;nan;97166.25;5016490;28;20262;-63
2023/08/24 02:25:54;;;;;;;9.50;8.70;;;;;;;15.65;nan;97171.59;4879716;28;20227;-64
2023/08/24 02:28:22;;;;;;;9.67;8.87;;;;;;;15.59;nan;97171.41;5017999;28;20606;-63
2023/08/24 02:30:50;;;;;;;10.27;9.47;;;;;;;15.58;nan;97167.13;5012833;28;20216;-63
2023/08/24 02:33:19;;;;;;;9.47;8.83;;;;;;;15.52;nan;97167.16;5016223;28;20575;-64
2023/08/24 02:35:48;;;;;;;10.43;9.63;;;;;;;15.47;nan;97165.94;5012028;28;20201;-61
2023/08/24 02:38:15;;;;;;;10.93;9.93;;;;;;;15.47;nan;97171.28;5016267;28;20211;-62
2023/08/24 02:40:43;;;;;;;9.60;8.90;;;;;;;15.42;nan;97168.44;5012666;28;20231;-64
2023/08/24 02:43:11;;;;;;;10.23;9.33;;;;;;;15.40;nan;97165.19;5015508;28;20231;-64
2023/08/24 02:45:38;;;;;;;9.60;8.90;;;;;;;15.37;nan;97165.63;4965784;28;20224;-63
2023/08/24 02:48:06;;;;;;;9.50;8.73;;;;;;;15.37;nan;97165.63;5018301;28;20207;-62
2023/08/24 02:50:36;;;;;;;9.50;8.70;;;;;;;15.35;nan;97167.69;5011276;28;20192;-62
2023/08/24 02:53:04;;;;;;;9.53;8.83;;;;;;;15.36;nan;97166.66;5018528;28;20477;-63
2023/08/24 02:55:33;;;;;;;10.57;9.60;;;;;;;15.40;nan;97164.38;5012352;28;20200;-63
2023/08/24 02:58:00;;;;;;;9.63;8.80;;;;;;;15.39;nan;97168.88;5017441;28;20753;-64
2023/08/24 03:00:28;;;;;;;9.40;8.27;;;;;;;15.42;nan;97162.31;4876775;28;20214;-61
2023/08/24 03:02:56;;;;;;;10.13;9.33;;;;;;;15.40;nan;97167.84;5009109;28;20576;-62
2023/08/24 03:05:23;;;;;;;9.40;8.70;;;;;;;15.37;nan;97164.81;5013489;28;20232;-63
2023/08/24 03:07:53;;;;;;;9.87;8.97;;;;;;;15.35;nan;97170.34;5015731;28;20700;-63
2023/08/24 03:10:21;;;;;;;9.40;8.57;;;;;;;15.42;nan;97170.31;5015077;28;20243;-61
2023/08/24 03:12:49;;;;;;;9.60;8.77;;;;;;;15.40;nan;97173.19;5015360;28;20204;-63
2023/08/24 03:15:17;;;;;;;9.27;8.67;;;;;;;15.37;nan;97180.84;5013577;28;20213;-63
2023/08/24 03:17:44;;;;;;;9.97;9.03;;;;;;;15.42;nan;97175.66;5016101;28;20236;-63
2023/08/24 03:20:13;;;;;;;9.00;8.40;;;;;;;15.43;nan;97170.09;4964656;28;20374;-64
2023/08/24 03:22:41;;;;;;;9.80;9.03;;;;;;;15.39;nan;97168.88;5017631;28;20213;-62
2023/08/24 03:25:10;;;;;;;9.77;8.83;;;;;;;15.33;nan;97169.75;5017953;28;20239;-61
2023/08/24 03:27:38;;;;;;;10.13;9.13;;;;;;;15.28;nan;97162.38;5018755;28;20234;-63
2023/08/24 03:30:08;;;;;;;8.73;8.17;;;;;;;15.26;nan;97159.09;4898110;28;25005;-61
2023/08/24 03:32:36;;;;;;;9.87;9.00;;;;;;;15.24;nan;97161.16;5019399;28;20208;-60
2023/08/24 03:35:04;;;;;;;10.10;9.43;;;;;;;15.19;nan;97161.84;5014282;28;20204;-63
2023/08/24 03:37:32;;;;;;;9.93;9.03;;;;;;;15.11;nan;97161.25;5017517;28;20271;-62
2023/08/24 03:40:00;;;;;;;9.30;8.60;;;;;;;15.09;nan;97164.13;5013772;28;20725;-62
2023/08/24 03:42:29;;;;;;;10.50;9.60;;;;;;;15.05;nan;97158.41;5019930;28;20258;-62
2023/08/24 03:44:57;;;;;;;10.83;9.73;;;;;;;15.03;nan;97162.31;5012963;28;20196;-62
2023/08/24 03:47:25;;;;;;;10.07;9.30;;;;;;;14.98;nan;97165.63;5018825;28;20647;-63
2023/08/24 03:49:53;;;;;;;10.87;9.97;;;;;;;14.95;nan;97170.56;4966100;28;20854;-64
2023/08/24 03:52:21;;;;;;;10.53;9.70;;;;;;;14.95;nan;97166.03;5019662;28;20219;-63
2023/08/24 03:54:49;;;;;;;11.00;10.30;;;;;;;14.92;nan;97171.00;5016927;28;20210;-62
2023/08/24 03:57:17;;;;;;;10.87;10.17;;;;;;;14.91;nan;97175.50;5017223;28;20235;-62
2023/08/24 03:59:46;;;;;;;11.20;10.20;;;;;;;14.87;nan;97174.28;5013052;28;20856;-62
2023/08/24 04:02:14;;;;;;;10.83;10.03;;;;;;;14.83;nan;97175.75;5019966;28;20266;-62
2023/08/24 04:04:42;;;;;;;11.17;10.20;;;;;;;14.81;nan;97175.13;4916704;28;20706;-63
2023/08/24 04:07:10;;;;;;;10.73;9.83;;;;;;;14.80;nan;97181.50;5012247;28;20236;-62
2023/08/24 04:09:38;;;;;;;11.00;10.10;;;;;;;14.78;nan;97179.06;5016312;28;20476;-63
2023/08/24 04:12:06;;;;;;;11.60;10.80;;;;;;;14.81;nan;97178.63;5019108;28;20679;-62
2023/08/24 04:14:33;;;;;;;11.70;10.73;;;;;;;14.82;nan;97187.44;5015716;28;20204;-61
2023/08/24 04:17:02;;;;;;;11.77;10.77;;;;;;;14.78;nan;97192.41;5017220;28;20208;-62
2023/08/24 04:19:31;;;;;;;12.63;11.63;;;;;;;14.83;nan;97187.25;4983703;28;20928;-63
2023/08/24 04:21:58;;;;;;;12.00;11.00;;;;;;;14.85;nan;97185.19;5005016;28;20690;-62
2023/08/24 04:24:26;;;;;;;12.13;11.33;;;;;;;14.86;nan;97192.16;5015451;28;20220;-62
2023/08/24 04:26:54;;;;;;;13.43;12.17;;;;;;;14.85;nan;97187.03;5020686;28;20576;-63
2023/08/24 04:29:21;;;;;;;12.03;10.90;;;;;;;14.86;nan;97186.00;5015329;28;20200;-61
2023/08/24 04:31:49;;;;;;;12.13;10.93;;;;;;;14.87;nan;97188.47;5018219;28;20238;-63
2023/08/24 04:34:21;;;;;;;12.23;11.33;;;;;;;14.81;nan;97173.31;4962148;28;20668;-63
2023/08/24 04:36:49;;;;;;;11.57;10.57;;;;;;;14.90;nan;97189.88;4959930;28;20243;-63
2023/08/24 04:39:18;;;;;;;12.17;11.17;;;;;;;14.92;nan;97179.00;5019726;28;20295;-64
2023/08/24 04:41:46;;;;;;;11.80;10.80;;;;;;;14.90;nan;97184.53;5015338;28;20209;-62
2023/08/24 04:44:13;;;;;;;12.87;11.60;;;;;;;14.90;nan;97184.53;5018401;28;20642;-62
2023/08/24 04:46:42;;;;;;;12.07;11.13;;;;;;;14.97;nan;97184.50;5008745;28;20372;-62
2023/08/24 04:49:09;;;;;;;12.30;11.30;;;;;;;15.05;nan;97179.75;5019309;28;20289;-62
2023/08/24 04:51:38;;;;;;;12.20;11.30;;;;;;;15.07;nan;97178.72;5013666;28;20223;-63
2023/08/24 04:54:06;;;;;;;12.53;11.60;;;;;;;15.07;nan;97176.06;5015821;28;20207;-63
2023/08/24 04:56:34;;;;;;;12.10;11.00;;;;;;;15.09;nan;97180.13;4972615;28;20227;-63
2023/08/24 04:59:02;;;;;;;12.23;11.33;;;;;;;15.11;nan;97182.59;5015548;28;20204;-63
2023/08/24 05:01:31;;;;;;;12.17;11.17;;;;;;;15.13;nan;97183.22;5016543;28;20208;-64
2023/08/24 05:03:59;;;;;;;11.80;10.90;;;;;;;15.09;nan;97160.66;5014923;28;20201;-63
2023/08/24 05:06:27;;;;;;;12.37;11.40;;;;;;;15.22;nan;97175.78;4896035;28;20228;-61
2023/08/24 05:08:56;;;;;;;12.17;11.17;;;;;;;15.29;nan;97179.22;5019150;28;20224;-61
2023/08/24 05:11:28;;;;;;;12.70;11.80;;;;;;;15.34;nan;97182.06;5012668;28;21671;-60
2023/08/24 05:13:56;;;;;;;12.30;11.47;;;;;;;15.41;nan;97171.34;5018364;28;20212;-61
2023/08/24 05:16:24;;;;;;;12.37;11.53;;;;;;;15.47;nan;97170.50;5011214;28;20228;-63
2023/08/24 05:18:52;;;;;;;12.40;11.50;;;;;;;15.56;nan;97169.19;5018299;28;20504;-63
2023/08/24 05:21:20;;;;;;;12.83;11.93;;;;;;;15.70;nan;97169.06;5014922;28;20577;-64
2023/08/24 05:23:47;;;;;;;13.10;12.20;;;;;;;15.74;nan;97172.97;5020242;28;20696;-61
2023/08/24 05:26:22;;;;;;;12.73;11.73;;;;;;;15.87;nan;97166.69;5018130;28;20220;-62
2023/08/24 05:28:50;;;;;;;12.83;11.90;;;;;;;15.94;nan;97169.34;5019192;28;20212;-62
2023/08/24 05:31:17;;;;;;;11.73;10.97;;;;;;;15.99;nan;97162.31;4968891;28;20208;-62
2023/08/24 05:33:48;;;;;;;12.13;11.30;;;;;;;16.09;nan;97167.13;5016632;28;20215;-60
2023/08/24 05:36:15;;;;;;;12.47;11.57;;;;;;;16.18;nan;97159.66;4884318;28;20227;-62
2023/08/24 05:38:46;;;;;;;12.30;11.30;;;;;;;16.24;nan;97153.44;5015375;28;20231;-62
2023/08/24 05:41:27;;;;;;;11.83;10.87;;;;;;;16.41;nan;97148.31;5013698;28;20207;-60
2023/08/24 05:43:57;;;;;;;11.97;10.87;;;;;;;16.52;nan;97149.44;5014360;28;20201;-59
2023/08/24 05:46:24;;;;;;;11.63;10.73;;;;;;;16.61;nan;97141.94;5015141;28;20236;-59
2023/08/24 05:48:52;;;;;;;11.83;10.93;;;;;;;16.57;nan;97154.13;5013282;28;20219;-62
2023/08/24 05:51:20;;;;;;;12.67;11.73;;;;;;;16.67;nan;97151.75;5013928;28;20209;-60
2023/08/24 05:53:47;;;;;;;10.93;10.03;;;;;;;16.77;nan;97152.03;5015554;28;20232;-63
2023/08/24 05:56:15;;;;;;;10.97;9.97;;;;;;;16.93;nan;97157.81;5013200;28;20235;-60
2023/08/24 05:58:44;;;;;;;10.83;10.00;;;;;;;17.02;nan;97159.16;5014236;28;20693;-61
2023/08/24 06:01:12;;;;;;;11.20;10.20;;;;;;;17.12;nan;97155.13;5010675;28;20777;-62
2023/08/24 06:03:39;;;;;;;12.20;11.20;;;;;;;17.20;nan;97162.81;5013861;28;20216;-60
2023/08/24 06:06:08;;;;;;;11.20;10.20;;;;;;;17.24;nan;97156.00;4958925;28;20703;-62
2023/08/24 06:08:36;;;;;;;10.97;10.17;;;;;;;17.44;nan;97155.72;4899531;28;20232;-61
2023/08/24 06:11:04;;;;;;;10.97;10.17;;;;;;;17.43;nan;97155.94;5015228;28;20243;-63
2023/08/24 06:13:32;;;;;;;10.90;9.97;;;;;;;17.54;nan;97163.16;5013671;28;20200;-62
2023/08/24 06:16:01;;;;;;;11.37;10.37;;;;;;;17.47;nan;97149.06;5015472;28;20819;-62
2023/08/24 06:18:29;;;;;;;11.30;10.43;;;;;;;17.64;nan;97147.38;5016886;28;20234;-63
2023/08/24 06:20:57;;;;;;;9.90;9.30;;;;;;;17.77;nan;97149.00;5014636;28;20215;-65
2023/08/24 06:23:24;;;;;;;10.47;9.67;;;;;;;17.99;nan;97155.66;5014096;28;20208;-64
2023/08/24 06:25:52;;;;;;;10.57;9.77;;;;;;;18.11;nan;97161.88;5015951;28;21237;-64
2023/08/24 06:28:20;;;;;;;9.97;9.07;;;;;;;18.28;nan;97163.84;5013336;28;20220;-64
2023/08/24 06:30:47;;;;;;;10.70;8.87;;;;;;;18.47;nan;97157.31;5016845;28;20200;-64
2023/08/24 06:33:18;;;;;;;8.10;7.50;;;;;;;18.72;nan;97145.47;5014120;28;20212;-64
2023/08/24 06:35:46;;;;;;;10.00;9.10;;;;;;;19.04;nan;97149.63;5017984;28;20693;-65
2023/08/24 06:38:14;;;;;;;9.47;8.83;;;;;;;18.91;nan;97146.09;4965613;28;20442;-64
2023/08/24 06:40:42;;;;;;;8.87;8.17;;;;;;;18.97;nan;97143.53;5015113;28;20204;-64
2023/08/24 06:43:09;;;;;;;9.30;8.50;;;;;;;18.89;nan;97147.41;4883474;28;20231;-62
2023/08/24 06:45:37;;;;;;;8.93;8.33;;;;;;;19.03;nan;97143.41;5015102;28;20193;-64
2023/08/24 06:48:06;;;;;;;8.40;7.73;;;;;;;19.62;nan;97134.25;5012518;28;20228;-63
2023/08/24 06:50:37;;;;;;;9.07;8.23;;;;;;;20.35;nan;97141.53;5014814;28;20209;-63
2023/08/24 06:53:05;;;;;;;8.43;7.67;;;;;;;20.56;nan;97136.44;5010558;28;20204;-63
2023/08/24 06:55:32;;;;;;;7.53;7.07;;;;;;;20.62;nan;97140.81;5015845;28;20243;-62
2023/08/24 06:58:00;;;;;;;7.83;7.30;;;;;;;20.60;nan;97148.31;5018533;28;20234;-63
2023/08/24 07:00:28;;;;;;;7.77;7.07;;;;;;;20.53;nan;97145.81;5019194;28;20208;-63
2023/08/24 07:02:55;;;;;;;7.27;6.83;;;;;;;20.56;nan;97152.59;5014495;28;20212;-63
2023/08/24 07:05:23;;;;;;;7.83;7.20;;;;;;;20.65;nan;97144.91;5020001;28;20210;-63
2023/08/24 07:07:53;;;;;;;7.50;6.90;;;;;;;20.53;nan;97129.66;5015334;28;20231;-63
2023/08/24 07:10:21;;;;;;;7.70;7.10;;;;;;;20.80;nan;97128.94;5020786;28;20296;-64
2023/08/24 07:12:49;;;;;;;7.27;6.87;;;;;;;21.04;nan;97120.59;4883825;28;20592;-65
2023/08/24 07:15:16;;;;;;;6.63;6.13;;;;;;;21.46;nan;97108.31;5020909;28;20208;-64
2023/08/24 07:17:44;;;;;;;7.30;6.60;;;;;;;21.86;nan;97100.84;5018136;28;20256;-64
2023/08/24 07:20:13;;;;;;;6.80;6.30;;;;;;;22.23;nan;97108.09;5019389;28;20351;-64
2023/08/24 07:22:41;;;;;;;6.13;5.63;;;;;;;22.65;nan;97108.31;5015974;28;20683;-64
2023/08/24 07:25:11;;;;;;;6.83;6.23;;;;;;;22.77;nan;97089.97;5018267;28;20631;-64
2023/08/24 07:27:39;;;;;;;6.90;6.40;;;;;;;22.99;nan;97088.97;5016170;28;20220;-65
2023/08/24 07:30:09;;;;;;;6.37;5.87;;;;;;;23.27;nan;97076.88;5017520;28;20216;-64
2023/08/24 07:32:53;;;;;;;7.20;6.60;;;;;;;23.66;nan;97070.09;5012254;28;20213;-63
2023/08/24 07:35:21;;;;;;;7.00;6.47;;;;;;;24.19;nan;97060.84;5019120;28;20631;-63
2023/08/24 07:37:48;;;;;;;7.37;6.60;;;;;;;24.09;nan;97047.34;5014814;28;20219;-65
2023/08/24 07:40:18;;;;;;;16.23;7.23;;;;;;;23.78;nan;97041.97;5020187;28;20216;-63
2023/08/24 07:42:46;;;;;;;9.70;6.77;;;;;;;23.75;nan;97039.81;4883358;28;20232;-62
2023/08/24 07:45:14;;;;;;;7.27;5.47;;;;;;;23.80;nan;97034.41;5017439;28;20353;-63
2023/08/24 07:47:42;;;;;;;6.83;6.33;;;;;;;23.91;nan;97036.00;5012812;28;20809;-64
2023/08/24 07:50:11;;;;;;;5.90;5.43;;;;;;;24.19;nan;97036.50;5018107;28;20322;-64
2023/08/24 07:52:39;;;;;;;5.80;5.40;;;;;;;24.36;nan;97032.63;5016155;28;20231;-63
2023/08/24 07:55:07;;;;;;;5.97;5.50;;;;;;;24.65;nan;97021.13;5017758;28;20204;-63
2023/08/24 07:57:37;;;;;;;6.30;5.90;;;;;;;24.55;nan;97028.22;5010081;28;20224;-63
2023/08/24 08:00:06;;;;;;;5.40;5.10;;;;;;;24.38;nan;97050.22;5017212;28;20230;-62
2023/08/24 08:02:37;;;;;;;6.17;5.50;;;;;;;24.49;nan;97050.16;5016172;28;20267;-64
2023/08/24 08:05:07;;;;;;;5.57;5.10;;;;;;;24.38;nan;97058.34;5019185;28;20204;-64
2023/08/24 08:07:35;;;;;;;8.50;5.80;;;;;;;24.19;nan;97062.72;5014746;28;20614;-65
2023/08/24 08:10:02;;;;;;;5.67;5.37;;;;;;;23.88;nan;97069.00;5018033;28;20215;-64
2023/08/24 08:12:32;;;;;;;5.73;5.30;;;;;;;23.95;nan;97071.44;5016656;28;20226;-63
2023/08/24 08:15:01;;;;;;;9.27;6.90;;;;;;;23.95;nan;97083.06;5017264;28;20208;-64
2023/08/24 08:17:30;;;;;;;6.03;5.43;;;;;;;24.15;nan;97086.84;4880543;28;20235;-63
2023/08/24 08:19:58;;;;;;;6.33;5.63;;;;;;;24.16;nan;97090.34;5018793;28;20204;-65
2023/08/24 08:22:26;;;;;;;5.47;5.17;;;;;;;24.39;nan;97099.75;5017976;28;20200;-63
2023/08/24 08:24:55;;;;;;;6.30;5.87;;;;;;;24.33;nan;97104.38;5017263;28;20213;-63
2023/08/24 08:27:23;;;;;;;6.40;5.80;;;;;;;24.02;nan;97106.34;5016195;28;20236;-64
2023/08/24 08:29:51;;;;;;;8.40;6.03;;;;;;;23.83;nan;97110.38;5018715;28;20253;-64
2023/08/24 08:32:20;;;;;;;8.30;5.50;;;;;;;23.92;nan;97118.78;5014822;28;20208;-64
2023/08/24 08:34:48;;;;;;;6.20;5.80;;;;;;;23.87;nan;97109.88;5019090;28;20674;-63
2023/08/24 08:37:16;;;;;;;12.23;6.53;;;;;;;23.96;nan;97125.25;5011635;28;20568;-63
2023/08/24 08:39:43;;;;;;;10.53;5.37;;;;;;;24.18;nan;97124.19;5019289;28;20208;-65
2023/08/24 08:42:15;;;;;;;7.87;5.33;;;;;;;24.00;nan;97117.41;5015549;28;20211;-64
2023/08/24 08:44:44;;;;;;;6.13;5.37;;;;;;;24.06;nan;97123.69;5022513;28;20575;-65
2023/08/24 08:47:11;;;;;;;5.90;5.47;;;;;;;24.24;nan;97114.97;5023424;28;20228;-64
2023/08/24 08:49:44;;;;;;;6.57;5.40;;;;;;;24.30;nan;97109.53;5025458;28;20225;-64
2023/08/24 08:52:12;;;;;;;6.40;5.33;;;;;;;24.28;nan;97110.63;4883196;28;20824;-63
2023/08/24 08:54:40;;;;;;;5.93;5.10;;;;;;;24.42;nan;97101.91;5019926;28;20724;-63
2023/08/24 08:57:09;;;;;;;5.43;5.00;;;;;;;24.57;nan;97106.47;5013156;28;20252;-64
2023/08/24 08:59:37;;;;;;;5.73;5.13;;;;;;;24.62;nan;97106.44;5019332;28;20576;-65
2023/08/24 09:02:06;;;;;;;5.20;4.90;;;;;;;24.49;nan;97104.31;5013087;28;20437;-62
2023/08/24 09:04:34;;;;;;;5.37;4.87;;;;;;;24.42;nan;97101.91;5018345;28;20219;-65
2023/08/24 09:07:10;;;;;;;5.40;5.10;;;;;;;24.52;nan;97099.19;5014650;28;20227;-63
2023/08/24 09:09:38;;;;;;;6.07;5.50;;;;;;;24.61;nan;97101.31;5016382;28;20247;-63
2023/08/24 09:12:07;;;;;;;7.13;5.37;;;;;;;24.43;nan;97109.75;5015016;28;20567;-65
2023/08/24 09:14:35;;;;;;;6.63;5.03;;;;;;;24.63;nan;97107.25;5015380;28;20664;-63
2023/08/24 09:17:03;;;;;;;6.20;4.87;;;;;;;24.82;nan;97107.47;5012353;28;20224;-63
2023/08/24 09:19:31;;;;;;;5.27;4.83;;;;;;;24.77;nan;97105.59;5016653;28;20276;-63
2023/08/24 09:21:59;;;;;;;5.80;5.17;;;;;;;24.68;nan;97069.31;4881527;28;20816;-63
2023/08/24 09:24:32;;;;;;;5.37;4.87;;;;;;;24.90;nan;97089.81;5018389;28;20248;-63
2023/08/24 09:27:00;;;;;;;7.87;5.40;;;;;;;24.95;nan;97106.84;5010379;28;20672;-61
2023/08/24 09:29:28;;;;;;;9.20;4.87;;;;;;;24.99;nan;97105.19;5017995;28;20598;-63
2023/08/24 09:31:56;;;;;;;22.03;8.37;;;;;;;25.22;nan;97093.97;5009577;28;20196;-63
2023/08/24 09:34:27;;;;;;;5.57;5.10;;;;;;;25.31;nan;97077.88;5019272;28;20197;-65
2023/08/24 09:36:54;;;;;;;5.50;4.90;;;;;;;25.19;nan;97046.53;5013267;28;20224;-62
2023/08/24 09:39:22;;;;;;;5.40;5.07;;;;;;;25.31;nan;97065.16;5017321;28;20541;-63
2023/08/24 09:41:51;;;;;;;5.00;4.60;;;;;;;25.47;nan;97063.16;5014433;28;20225;-64
2023/08/24 09:44:19;;;;;;;7.93;5.37;;;;;;;25.49;nan;97055.56;5014892;28;20717;-64
2023/08/24 09:46:47;;;;;;;11.07;6.47;;;;;;;25.74;nan;97045.56;5012125;28;20232;-64
2023/08/24 09:49:15;;;;;;;6.27;5.03;;;;;;;25.70;nan;97042.63;5014783;28;20225;-64
2023/08/24 09:51:44;;;;;;;5.23;4.83;;;;;;;25.61;nan;97013.69;4901725;28;20969;-64
2023/08/24 09:54:13;;;;;;;5.67;4.80;;;;;;;25.83;nan;97019.44;5006396;28;20209;-64
2023/08/24 09:56:42;;;;;;;5.40;4.93;;;;;;;25.99;nan;97030.94;5013068;28;20252;-64
2023/08/24 09:59:17;;;;;;;4.90;4.43;;;;;;;26.17;nan;97020.44;5014061;28;20647;-64
2023/08/24 10:01:47;;;;;;;5.87;4.90;;;;;;;26.35;nan;97020.78;5012308;28;20893;-64
2023/08/24 10:04:18;;;;;;;4.80;4.40;;;;;;;26.26;nan;97021.41;5015085;28;20211;-64
2023/08/24 10:06:49;;;;;;;6.23;4.43;;;;;;;26.32;nan;97015.91;5012790;28;20228;-65
2023/08/24 10:09:23;;;;;;;8.40;4.50;;;;;;;26.47;nan;97014.91;5013485;28;21639;-64
2023/08/24 10:11:54;;;;;;;4.20;3.90;;;;;;;26.69;nan;97009.72;5016630;28;20593;-64
2023/08/24 10:14:27;;;;;;;3.57;3.30;;;;;;;26.70;nan;97000.47;5016000;28;20205;-63
2023/08/24 10:16:55;;;;;;;4.17;3.77;;;;;;;26.72;nan;96992.03;5017205;28;20228;-64
2023/08/24 10:19:23;;;;;;;3.47;3.27;;;;;;;26.83;nan;96982.63;5016091;28;20211;-64
2023/08/24 10:21:51;;;;;;;4.57;3.83;;;;;;;26.95;nan;96981.38;5018491;28;20224;-63
2023/08/24 10:24:20;;;;;;;5.07;4.03;;;;;;;26.95;nan;96967.78;5015456;28;21902;-63
2023/08/24 10:26:48;;;;;;;3.83;3.63;;;;;;;27.09;nan;96967.84;5013733;28;20229;-63
2023/08/24 10:29:17;;;;;;;4.67;3.90;;;;;;;27.09;nan;96965.13;5014869;28;20253;-63
2023/08/24 10:31:46;;;;;;;4.23;3.93;;;;;;;27.22;nan;96960.84;5017008;28;20229;-64
2023/08/24 10:34:13;;;;;;;4.70;4.30;;;;;;;27.11;nan;96962.91;5015868;28;20209;-64
2023/08/24 10:36:41;;;;;;;4.77;3.67;;;;;;;27.35;nan;96964.69;5017895;28;20216;-64
2023/08/24 10:39:10;;;;;;;5.83;3.90;;;;;;;27.36;nan;96964.38;5019375;28;20728;-65
2023/08/24 10:41:47;;;;;;;4.43;4.13;;;;;;;27.67;nan;96960.34;5018688;28;20203;-64
2023/08/24 10:44:22;;;;;;;4.17;3.97;;;;;;;27.81;nan;96952.97;5017323;28;20214;-64
2023/08/24 10:47:09;;;;;;;6.10;3.90;;;;;;;27.79;nan;96947.03;5015247;28;20228;-63
2023/08/24 10:49:37;;;;;;;4.43;3.60;;;;;;;28.27;nan;96948.53;5015070;28;20683;-63
2023/08/24 10:52:18;;;;;;;4.07;3.77;;;;;;;28.87;nan;96933.03;5011947;28;20221;-64
2023/08/24 10:54:48;;;;;;;4.80;4.40;;;;;;;29.34;nan;96945.50;5017493;28;20209;-63
2023/08/24 10:57:20;;;;;;;4.20;3.80;;;;;;;29.77;nan;96957.78;5014005;28;20340;-64
2023/08/24 11:00:05;;;;;;;4.30;4.10;;;;;;;29.79;nan;96954.75;5013100;28;20201;-64
2023/08/24 11:02:43;;;;;;;4.17;3.87;;;;;;;29.86;nan;96950.41;5017119;28;20277;-63
2023/08/24 11:05:19;;;;;;;4.13;3.43;;;;;;;29.41;nan;96945.91;5015524;28;20222;-63
2023/08/24 11:07:51;;;;;;;4.10;3.73;;;;;;;29.45;nan;96946.06;5016231;28;20228;-64
2023/08/24 11:10:19;;;;;;;4.37;3.97;;;;;;;29.27;nan;96945.16;5012835;28;20602;-63
2023/08/24 11:13:12;;;;;;;4.13;3.83;;;;;;;29.08;nan;96935.25;5014071;28;20475;-63
2023/08/24 11:15:44;;;;;;;3.90;3.47;;;;;;;28.88;nan;96926.47;5012444;28;20312;-63
2023/08/24 11:18:22;;;;;;;3.97;3.70;;;;;;;28.86;nan;96911.53;5014477;28;20212;-66
2023/08/24 11:20:52;;;;;;;4.10;3.90;;;;;;;28.86;nan;96904.16;5016035;28;20216;-63
2023/08/24 11:23:21;;;;;;;4.10;3.80;;;;;;;28.81;nan;96900.78;5017522;28;20207;-64
2023/08/24 11:25:51;;;;;;;4.47;4.07;;;;;;;28.77;nan;96908.72;5015959;28;20628;-65
2023/08/24 11:28:20;;;;;;;6.13;4.00;;;;;;;28.82;nan;96894.19;5010509;28;20246;-65
2023/08/24 11:30:48;;;;;;;4.30;4.00;;;;;;;28.80;nan;96899.94;5011337;28;20582;-64
2023/08/24 11:33:18;;;;;;;4.90;4.50;;;;;;;28.98;nan;96908.22;5014563;28;20215;-64
2023/08/24 11:35:46;;;;;;;4.60;4.30;;;;;;;28.93;nan;96900.19;5016259;28;20215;-64
2023/08/24 11:38:14;;;;;;;4.40;4.10;;;;;;;29.12;nan;96908.97;5015211;28;20204;-66
2023/08/24 11:40:42;;;;;;;3.90;3.70;;;;;;;29.16;nan;96895.50;5016139;28;20204;-66
2023/08/24 11:43:10;;;;;;;5.17;3.47;;;;;;;29.14;nan;96898.56;5020163;28;20510;-64
2023/08/24 11:45:40;;;;;;;3.67;3.47;;;;;;;29.13;nan;96899.69;5019520;28;20590;-64
2023/08/24 11:48:09;;;;;;;6.07;3.83;;;;;;;29.26;nan;96887.06;5017519;28;20235;-62
2023/08/24 11:50:38;;;;;;;4.00;3.67;;;;;;;29.48;nan;96888.13;5016018;28;20301;-63
2023/08/24 11:53:07;;;;;;;4.20;3.83;;;;;;;29.40;nan;96875.28;5016920;28;20203;-63
2023/08/24 11:55:40;;;;;;;3.60;3.30;;;;;;;29.66;nan;96888.22;5017992;28;20212;-64